sensor_id;sensor_type;location;lat;lon;timestamp;temperature;humidity
71291;DHT22;59073;51.994;4.448;2023-09-30T00:00:45;15.54;80.76
71291;DHT22;59073;51.994;4.448;2023-09-30T00:03:10;15.51;80.26
71291;DHT22;59073;51.994;4.448;2023-09-30T00:05:37;15.49;79.77
71291;DHT22;59073;51.994;4.448;2023-09-30T00:08:03;15.41;79.60
71291;DHT22;59073;51.994;4.448;2023-09-30T00:10:29;15.39;79.36
71291;DHT22;59073;51.994;4.448;2023-09-30T00:12:56;15.26;79.16
71291;DHT22;59073;51.994;4.448;2023-09-30T00:15:21;15.24;79.53
71291;DHT22;59073;51.994;4.448;2023-09-30T00:17:47;15.26;79.68
71291;DHT22;59073;51.994;4.448;2023-09-30T00:20:13;15.27;79.68
71291;DHT22;59073;51.994;4.448;2023-09-30T00:22:40;15.24;79.68
71291;DHT22;59073;51.994;4.448;2023-09-30T00:25:07;15.23;79.76
71291;DHT22;59073;51.994;4.448;2023-09-30T00:27:32;15.20;80.14
71291;DHT22;59073;51.994;4.448;2023-09-30T00:29:58;15.24;80.36
71291;DHT22;59073;51.994;4.448;2023-09-30T00:32:23;15.36;80.11
71291;DHT22;59073;51.994;4.448;2023-09-30T00:34:49;15.34;79.93
71291;DHT22;59073;51.994;4.448;2023-09-30T00:37:14;15.34;80.18
71291;DHT22;59073;51.994;4.448;2023-09-30T00:39:40;15.31;79.83
71291;DHT22;59073;51.994;4.448;2023-09-30T00:42:05;15.27;79.48
71291;DHT22;59073;51.994;4.448;2023-09-30T00:44:31;15.20;79.76
71291;DHT22;59073;51.994;4.448;2023-09-30T00:46:56;15.07;79.85
71291;DHT22;59073;51.994;4.448;2023-09-30T00:49:25;14.99;80.34
71291;DHT22;59073;51.994;4.448;2023-09-30T00:51:52;15.03;81.04
71291;DHT22;59073;51.994;4.448;2023-09-30T00:54:18;15.19;80.43
71291;DHT22;59073;51.994;4.448;2023-09-30T00:56:46;15.20;80.45
71291;DHT22;59073;51.994;4.448;2023-09-30T00:59:14;15.22;80.33
71291;DHT22;59073;51.994;4.448;2023-09-30T01:01:44;15.24;80.20
71291;DHT22;59073;51.994;4.448;2023-09-30T01:04:14;15.14;80.15
71291;DHT22;59073;51.994;4.448;2023-09-30T01:06:40;15.04;80.00
71291;DHT22;59073;51.994;4.448;2023-09-30T01:09:07;14.99;80.00
71291;DHT22;59073;51.994;4.448;2023-09-30T01:11:32;14.93;80.35
71291;DHT22;59073;51.994;4.448;2023-09-30T01:13:58;14.89;80.51
71291;DHT22;59073;51.994;4.448;2023-09-30T01:16:23;14.86;80.67
71291;DHT22;59073;51.994;4.448;2023-09-30T01:18:50;14.83;80.75
71291;DHT22;59073;51.994;4.448;2023-09-30T01:21:15;14.86;80.38
71291;DHT22;59073;51.994;4.448;2023-09-30T01:23:41;14.79;80.60
71291;DHT22;59073;51.994;4.448;2023-09-30T01:26:10;14.76;81.12
71291;DHT22;59073;51.994;4.448;2023-09-30T01:28:38;14.86;81.39
71291;DHT22;59073;51.994;4.448;2023-09-30T01:31:04;14.90;80.84
71291;DHT22;59073;51.994;4.448;2023-09-30T01:33:31;14.85;81.38
71291;DHT22;59073;51.994;4.448;2023-09-30T01:35:57;14.73;80.90
71291;DHT22;59073;51.994;4.448;2023-09-30T01:38:22;14.64;80.87
71291;DHT22;59073;51.994;4.448;2023-09-30T01:40:48;14.67;81.30
71291;DHT22;59073;51.994;4.448;2023-09-30T01:43:14;14.83;81.50
71291;DHT22;59073;51.994;4.448;2023-09-30T01:45:41;14.90;81.77
71291;DHT22;59073;51.994;4.448;2023-09-30T01:48:07;14.99;81.56
71291;DHT22;59073;51.994;4.448;2023-09-30T01:50:37;14.93;81.41
71291;DHT22;59073;51.994;4.448;2023-09-30T01:53:04;14.92;81.18
71291;DHT22;59073;51.994;4.448;2023-09-30T01:55:30;14.88;81.18
71291;DHT22;59073;51.994;4.448;2023-09-30T01:57:56;14.93;81.37
71291;DHT22;59073;51.994;4.448;2023-09-30T02:00:21;14.95;81.51
71291;DHT22;59073;51.994;4.448;2023-09-30T02:02:46;14.96;81.36
71291;DHT22;59073;51.994;4.448;2023-09-30T02:05:12;14.86;81.17
71291;DHT22;59073;51.994;4.448;2023-09-30T02:07:38;14.85;81.20
71291;DHT22;59073;51.994;4.448;2023-09-30T02:10:04;14.86;81.34
71291;DHT22;59073;51.994;4.448;2023-09-30T02:12:30;14.93;81.73
71291;DHT22;59073;51.994;4.448;2023-09-30T02:14:55;14.99;81.95
71291;DHT22;59073;51.994;4.448;2023-09-30T02:17:21;15.00;82.29
71291;DHT22;59073;51.994;4.448;2023-09-30T02:19:47;15.09;81.85
71291;DHT22;59073;51.994;4.448;2023-09-30T02:22:13;15.12;81.88
71291;DHT22;59073;51.994;4.448;2023-09-30T02:24:38;15.06;81.83
71291;DHT22;59073;51.994;4.448;2023-09-30T02:27:05;14.93;81.46
71291;DHT22;59073;51.994;4.448;2023-09-30T02:29:31;14.83;81.66
71291;DHT22;59073;51.994;4.448;2023-09-30T02:31:56;14.88;81.60
71291;DHT22;59073;51.994;4.448;2023-09-30T02:34:22;14.83;82.21
71291;DHT22;59073;51.994;4.448;2023-09-30T02:36:49;14.71;82.04
71291;DHT22;59073;51.994;4.448;2023-09-30T02:39:15;14.67;82.73
71291;DHT22;59073;51.994;4.448;2023-09-30T02:41:42;14.73;82.96
71291;DHT22;59073;51.994;4.448;2023-09-30T02:44:07;14.85;82.74
71291;DHT22;59073;51.994;4.448;2023-09-30T02:46:33;14.85;82.62
71291;DHT22;59073;51.994;4.448;2023-09-30T02:48:58;14.83;81.53
71291;DHT22;59073;51.994;4.448;2023-09-30T02:51:25;14.81;82.00
71291;DHT22;59073;51.994;4.448;2023-09-30T02:53:51;14.88;82.06
71291;DHT22;59073;51.994;4.448;2023-09-30T02:56:16;14.88;82.36
71291;DHT22;59073;51.994;4.448;2023-09-30T02:58:42;14.92;82.69
71291;DHT22;59073;51.994;4.448;2023-09-30T03:01:08;15.03;82.82
71291;DHT22;59073;51.994;4.448;2023-09-30T03:03:35;14.99;82.62
71291;DHT22;59073;51.994;4.448;2023-09-30T03:06:00;15.00;82.77
71291;DHT22;59073;51.994;4.448;2023-09-30T03:08:26;15.13;82.50
71291;DHT22;59073;51.994;4.448;2023-09-30T03:10:52;15.18;82.40
71291;DHT22;59073;51.994;4.448;2023-09-30T03:13:18;15.23;82.30
71291;DHT22;59073;51.994;4.448;2023-09-30T03:15:44;15.24;82.40
71291;DHT22;59073;51.994;4.448;2023-09-30T03:18:09;15.29;82.48
71291;DHT22;59073;51.994;4.448;2023-09-30T03:20:35;15.37;82.32
71291;DHT22;59073;51.994;4.448;2023-09-30T03:23:05;15.39;82.34
71291;DHT22;59073;51.994;4.448;2023-09-30T03:25:30;15.40;82.51
71291;DHT22;59073;51.994;4.448;2023-09-30T03:27:56;15.46;82.47
71291;DHT22;59073;51.994;4.448;2023-09-30T03:30:22;15.44;82.74
71291;DHT22;59073;51.994;4.448;2023-09-30T03:32:48;15.46;82.71
71291;DHT22;59073;51.994;4.448;2023-09-30T03:35:14;15.55;82.47
71291;DHT22;59073;51.994;4.448;2023-09-30T03:37:43;15.57;82.25
71291;DHT22;59073;51.994;4.448;2023-09-30T03:40:10;15.60;82.36
71291;DHT22;59073;51.994;4.448;2023-09-30T03:42:59;15.62;82.28
71291;DHT22;59073;51.994;4.448;2023-09-30T03:45:24;15.67;82.20
71291;DHT22;59073;51.994;4.448;2023-09-30T03:47:49;15.68;82.08
71291;DHT22;59073;51.994;4.448;2023-09-30T03:50:17;15.72;82.14
71291;DHT22;59073;51.994;4.448;2023-09-30T03:52:44;15.72;82.11
71291;DHT22;59073;51.994;4.448;2023-09-30T03:55:11;15.72;81.93
71291;DHT22;59073;51.994;4.448;2023-09-30T03:57:37;15.74;82.07
71291;DHT22;59073;51.994;4.448;2023-09-30T04:00:03;15.74;82.14
71291;DHT22;59073;51.994;4.448;2023-09-30T04:02:32;15.70;82.53
71291;DHT22;59073;51.994;4.448;2023-09-30T04:04:58;15.72;82.49
71291;DHT22;59073;51.994;4.448;2023-09-30T04:07:25;15.72;82.38
71291;DHT22;59073;51.994;4.448;2023-09-30T04:09:55;15.68;82.53
71291;DHT22;59073;51.994;4.448;2023-09-30T04:12:21;15.71;82.50
71291;DHT22;59073;51.994;4.448;2023-09-30T04:14:49;15.71;82.40
71291;DHT22;59073;51.994;4.448;2023-09-30T04:17:14;15.68;82.49
71291;DHT22;59073;51.994;4.448;2023-09-30T04:19:40;15.74;82.58
71291;DHT22;59073;51.994;4.448;2023-09-30T04:22:05;15.71;82.47
71291;DHT22;59073;51.994;4.448;2023-09-30T04:24:31;15.67;82.14
71291;DHT22;59073;51.994;4.448;2023-09-30T04:26:56;15.64;81.99
71291;DHT22;59073;51.994;4.448;2023-09-30T04:29:27;15.61;81.82
71291;DHT22;59073;51.994;4.448;2023-09-30T04:31:55;15.57;81.81
71291;DHT22;59073;51.994;4.448;2023-09-30T04:34:20;15.50;81.39
71291;DHT22;59073;51.994;4.448;2023-09-30T04:36:46;15.43;81.76
71291;DHT22;59073;51.994;4.448;2023-09-30T04:39:13;15.41;81.96
71291;DHT22;59073;51.994;4.448;2023-09-30T04:41:40;15.46;82.12
71291;DHT22;59073;51.994;4.448;2023-09-30T04:44:06;15.51;82.07
71291;DHT22;59073;51.994;4.448;2023-09-30T04:46:32;15.50;82.16
71291;DHT22;59073;51.994;4.448;2023-09-30T04:48:57;15.54;81.95
71291;DHT22;59073;51.994;4.448;2023-09-30T04:51:23;15.51;81.90
71291;DHT22;59073;51.994;4.448;2023-09-30T04:53:50;15.51;81.94
71291;DHT22;59073;51.994;4.448;2023-09-30T04:56:16;15.49;81.99
71291;DHT22;59073;51.994;4.448;2023-09-30T04:58:42;15.51;81.98
71291;DHT22;59073;51.994;4.448;2023-09-30T05:01:07;15.50;81.81
71291;DHT22;59073;51.994;4.448;2023-09-30T05:03:34;15.47;81.79
71291;DHT22;59073;51.994;4.448;2023-09-30T05:06:00;15.39;82.24
71291;DHT22;59073;51.994;4.448;2023-09-30T05:08:26;15.31;82.79
71291;DHT22;59073;51.994;4.448;2023-09-30T05:10:51;15.34;82.81
71291;DHT22;59073;51.994;4.448;2023-09-30T05:13:20;15.31;82.78
71291;DHT22;59073;51.994;4.448;2023-09-30T05:15:46;15.33;82.76
71291;DHT22;59073;51.994;4.448;2023-09-30T05:18:11;15.37;82.37
71291;DHT22;59073;51.994;4.448;2023-09-30T05:20:37;15.34;82.26
71291;DHT22;59073;51.994;4.448;2023-09-30T05:23:04;15.30;82.18
71291;DHT22;59073;51.994;4.448;2023-09-30T05:25:32;15.27;82.18
71291;DHT22;59073;51.994;4.448;2023-09-30T05:27:57;15.27;82.22
71291;DHT22;59073;51.994;4.448;2023-09-30T05:30:23;15.26;82.20
71291;DHT22;59073;51.994;4.448;2023-09-30T05:32:48;15.27;82.24
71291;DHT22;59073;51.994;4.448;2023-09-30T05:35:17;15.29;82.25
71291;DHT22;59073;51.994;4.448;2023-09-30T05:37:43;15.26;82.10
71291;DHT22;59073;51.994;4.448;2023-09-30T05:40:10;15.24;82.60
71291;DHT22;59073;51.994;4.448;2023-09-30T05:42:47;15.33;82.55
71291;DHT22;59073;51.994;4.448;2023-09-30T05:45:15;15.36;82.39
71291;DHT22;59073;51.994;4.448;2023-09-30T05:47:41;15.37;82.35
71291;DHT22;59073;51.994;4.448;2023-09-30T05:50:08;15.39;82.50
71291;DHT22;59073;51.994;4.448;2023-09-30T05:52:42;15.36;82.85
71291;DHT22;59073;51.994;4.448;2023-09-30T05:55:08;15.37;83.15
71291;DHT22;59073;51.994;4.448;2023-09-30T05:57:33;15.44;83.08
71291;DHT22;59073;51.994;4.448;2023-09-30T06:00:01;15.51;82.90
71291;DHT22;59073;51.994;4.448;2023-09-30T06:02:26;15.57;82.83
71291;DHT22;59073;51.994;4.448;2023-09-30T06:04:51;15.57;82.89
71291;DHT22;59073;51.994;4.448;2023-09-30T06:07:19;15.65;82.96
71291;DHT22;59073;51.994;4.448;2023-09-30T06:09:46;15.77;82.86
71291;DHT22;59073;51.994;4.448;2023-09-30T06:12:13;15.90;82.32
71291;DHT22;59073;51.994;4.448;2023-09-30T06:14:39;15.80;82.35
71291;DHT22;59073;51.994;4.448;2023-09-30T06:17:07;15.81;82.39
71291;DHT22;59073;51.994;4.448;2023-09-30T06:19:32;15.90;82.62
71291;DHT22;59073;51.994;4.448;2023-09-30T06:21:58;16.25;82.31
71291;DHT22;59073;51.994;4.448;2023-09-30T06:24:23;16.70;81.96
71291;DHT22;59073;51.994;4.448;2023-09-30T06:26:49;17.15;80.65
71291;DHT22;59073;51.994;4.448;2023-09-30T06:29:14;17.14;78.21
71291;DHT22;59073;51.994;4.448;2023-09-30T06:31:40;17.30;78.03
71291;DHT22;59073;51.994;4.448;2023-09-30T06:34:05;17.58;76.60
71291;DHT22;59073;51.994;4.448;2023-09-30T06:36:32;17.73;76.37
71291;DHT22;59073;51.994;4.448;2023-09-30T06:38:57;17.99;75.18
71291;DHT22;59073;51.994;4.448;2023-09-30T06:41:24;17.96;74.40
71291;DHT22;59073;51.994;4.448;2023-09-30T06:43:49;17.96;74.03
71291;DHT22;59073;51.994;4.448;2023-09-30T06:46:14;17.89;73.90
71291;DHT22;59073;51.994;4.448;2023-09-30T06:48:41;18.00;76.04
71291;DHT22;59073;51.994;4.448;2023-09-30T06:51:06;18.30;74.60
71291;DHT22;59073;51.994;4.448;2023-09-30T06:53:31;18.65;74.49
71291;DHT22;59073;51.994;4.448;2023-09-30T06:55:57;18.88;73.63
71291;DHT22;59073;51.994;4.448;2023-09-30T06:58:23;18.84;72.74
71291;DHT22;59073;51.994;4.448;2023-09-30T07:00:52;18.78;73.03
71291;DHT22;59073;51.994;4.448;2023-09-30T07:03:19;18.95;73.52
71291;DHT22;59073;51.994;4.448;2023-09-30T07:05:45;19.01;74.26
71291;DHT22;59073;51.994;4.448;2023-09-30T07:08:15;18.91;74.36
71291;DHT22;59073;51.994;4.448;2023-09-30T07:10:40;18.85;76.02
71291;DHT22;59073;51.994;4.448;2023-09-30T07:13:05;18.75;76.50
71291;DHT22;59073;51.994;4.448;2023-09-30T07:15:33;18.67;77.39
71291;DHT22;59073;51.994;4.448;2023-09-30T07:17:59;18.71;77.70
71291;DHT22;59073;51.994;4.448;2023-09-30T07:20:24;18.78;77.93
71291;DHT22;59073;51.994;4.448;2023-09-30T07:22:50;18.81;77.61
71291;DHT22;59073;51.994;4.448;2023-09-30T07:25:16;18.61;77.95
71291;DHT22;59073;51.994;4.448;2023-09-30T07:27:46;18.51;79.10
71291;DHT22;59073;51.994;4.448;2023-09-30T07:30:12;18.71;78.89
71291;DHT22;59073;51.994;4.448;2023-09-30T07:32:41;18.89;78.57
71291;DHT22;59073;51.994;4.448;2023-09-30T07:35:07;18.94;77.87
71291;DHT22;59073;51.994;4.448;2023-09-30T07:37:33;19.12;77.52
71291;DHT22;59073;51.994;4.448;2023-09-30T07:39:59;19.18;77.67
71291;DHT22;59073;51.994;4.448;2023-09-30T07:42:25;19.27;77.00
71291;DHT22;59073;51.994;4.448;2023-09-30T07:44:50;19.13;77.33
71291;DHT22;59073;51.994;4.448;2023-09-30T07:47:17;19.19;77.51
71291;DHT22;59073;51.994;4.448;2023-09-30T07:49:42;19.18;77.65
71291;DHT22;59073;51.994;4.448;2023-09-30T07:52:08;19.37;77.89
71291;DHT22;59073;51.994;4.448;2023-09-30T07:54:34;19.53;76.78
71291;DHT22;59073;51.994;4.448;2023-09-30T07:56:59;19.66;76.76
71291;DHT22;59073;51.994;4.448;2023-09-30T07:59:26;19.63;76.63
71291;DHT22;59073;51.994;4.448;2023-09-30T08:01:51;19.66;77.02
71291;DHT22;59073;51.994;4.448;2023-09-30T08:04:18;19.81;76.19
71291;DHT22;59073;51.994;4.448;2023-09-30T08:06:44;20.04;75.62
71291;DHT22;59073;51.994;4.448;2023-09-30T08:09:11;19.95;75.68
71291;DHT22;59073;51.994;4.448;2023-09-30T08:11:38;19.60;75.78
71291;DHT22;59073;51.994;4.448;2023-09-30T08:14:04;19.49;76.35
71291;DHT22;59073;51.994;4.448;2023-09-30T08:16:35;19.34;76.34
71291;DHT22;59073;51.994;4.448;2023-09-30T08:19:00;19.40;77.10
71291;DHT22;59073;51.994;4.448;2023-09-30T08:21:26;19.27;76.63
71291;DHT22;59073;51.994;4.448;2023-09-30T08:23:51;19.34;77.24
71291;DHT22;59073;51.994;4.448;2023-09-30T08:26:17;19.77;76.89
71291;DHT22;59073;51.994;4.448;2023-09-30T08:28:42;20.01;76.52
71291;DHT22;59073;51.994;4.448;2023-09-30T08:31:08;20.39;75.15
71291;DHT22;59073;51.994;4.448;2023-09-30T08:33:34;20.57;73.81
71291;DHT22;59073;51.994;4.448;2023-09-30T08:36:04;20.68;72.63
71291;DHT22;59073;51.994;4.448;2023-09-30T08:38:39;20.76;72.84
71291;DHT22;59073;51.994;4.448;2023-09-30T08:41:05;20.73;73.20
71291;DHT22;59073;51.994;4.448;2023-09-30T08:43:31;20.87;72.22
71291;DHT22;59073;51.994;4.448;2023-09-30T08:46:02;20.94;72.89
71291;DHT22;59073;51.994;4.448;2023-09-30T08:48:31;21.20;72.91
71291;DHT22;59073;51.994;4.448;2023-09-30T08:50:59;21.21;71.72
71291;DHT22;59073;51.994;4.448;2023-09-30T08:53:25;21.35;70.37
71291;DHT22;59073;51.994;4.448;2023-09-30T08:55:53;21.50;70.06
71291;DHT22;59073;51.994;4.448;2023-09-30T08:58:24;21.66;70.15
71291;DHT22;59073;51.994;4.448;2023-09-30T09:00:51;21.75;70.02
71291;DHT22;59073;51.994;4.448;2023-09-30T09:03:18;21.59;69.91
71291;DHT22;59073;51.994;4.448;2023-09-30T09:05:44;21.69;69.86
71291;DHT22;59073;51.994;4.448;2023-09-30T09:08:09;21.77;69.00
71291;DHT22;59073;51.994;4.448;2023-09-30T09:10:35;21.95;69.72
71291;DHT22;59073;51.994;4.448;2023-09-30T09:13:00;22.03;67.73
71291;DHT22;59073;51.994;4.448;2023-09-30T09:15:28;22.03;67.94
71291;DHT22;59073;51.994;4.448;2023-09-30T09:17:54;22.29;67.80
71291;DHT22;59073;51.994;4.448;2023-09-30T09:20:26;22.63;67.23
71291;DHT22;59073;51.994;4.448;2023-09-30T09:22:53;22.83;67.31
71291;DHT22;59073;51.994;4.448;2023-09-30T09:25:22;22.97;66.00
71291;DHT22;59073;51.994;4.448;2023-09-30T09:27:49;22.91;66.40
71291;DHT22;59073;51.994;4.448;2023-09-30T09:35:26;23.23;65.24
71291;DHT22;59073;51.994;4.448;2023-09-30T09:37:58;23.14;64.95
71291;DHT22;59073;51.994;4.448;2023-09-30T09:40:27;23.16;64.22
71291;DHT22;59073;51.994;4.448;2023-09-30T09:42:54;23.23;64.43
71291;DHT22;59073;51.994;4.448;2023-09-30T09:45:25;23.33;64.61
71291;DHT22;59073;51.994;4.448;2023-09-30T09:47:51;23.51;63.89
71291;DHT22;59073;51.994;4.448;2023-09-30T09:50:18;23.65;62.75
71291;DHT22;59073;51.994;4.448;2023-09-30T09:52:48;23.72;62.15
71291;DHT22;59073;51.994;4.448;2023-09-30T09:55:16;23.89;61.54
71291;DHT22;59073;51.994;4.448;2023-09-30T09:57:43;23.89;61.91
71291;DHT22;59073;51.994;4.448;2023-09-30T10:00:20;23.37;59.98
71291;DHT22;59073;51.994;4.448;2023-09-30T10:02:47;23.12;60.19
71291;DHT22;59073;51.994;4.448;2023-09-30T10:05:14;22.98;61.38
71291;DHT22;59073;51.994;4.448;2023-09-30T10:08:05;22.86;62.04
71291;DHT22;59073;51.994;4.448;2023-09-30T10:10:36;23.10;61.36
71291;DHT22;59073;51.994;4.448;2023-09-30T10:13:03;23.01;58.58
71291;DHT22;59073;51.994;4.448;2023-09-30T10:18:00;22.95;61.31
71291;DHT22;59073;51.994;4.448;2023-09-30T10:20:30;22.84;61.01
71291;DHT22;59073;51.994;4.448;2023-09-30T10:25:47;23.01;58.43
71291;DHT22;59073;51.994;4.448;2023-09-30T10:28:33;22.64;60.00
71291;DHT22;59073;51.994;4.448;2023-09-30T10:31:22;22.60;59.34
71291;DHT22;59073;51.994;4.448;2023-09-30T10:36:31;22.47;61.51
71291;DHT22;59073;51.994;4.448;2023-09-30T10:38:57;22.57;61.86
71291;DHT22;59073;51.994;4.448;2023-09-30T10:46:47;23.42;60.48
71291;DHT22;59073;51.994;4.448;2023-09-30T10:49:18;23.61;58.27
71291;DHT22;59073;51.994;4.448;2023-09-30T10:51:58;23.80;60.33
71291;DHT22;59073;51.994;4.448;2023-09-30T10:54:27;23.73;59.54
71291;DHT22;59073;51.994;4.448;2023-09-30T10:56:54;23.08;55.45
71291;DHT22;59073;51.994;4.448;2023-09-30T10:59:24;22.97;57.00
71291;DHT22;59073;51.994;4.448;2023-09-30T11:01:51;22.86;56.96
71291;DHT22;59073;51.994;4.448;2023-09-30T11:04:18;22.86;58.75
71291;DHT22;59073;51.994;4.448;2023-09-30T11:06:46;22.77;58.61
71291;DHT22;59073;51.994;4.448;2023-09-30T11:09:19;22.74;60.07
71291;DHT22;59073;51.994;4.448;2023-09-30T11:11:49;22.65;59.58
71291;DHT22;59073;51.994;4.448;2023-09-30T11:14:28;22.39;58.54
71291;DHT22;59073;51.994;4.448;2023-09-30T11:16:56;22.28;60.14
71291;DHT22;59073;51.994;4.448;2023-09-30T11:19:23;22.19;60.41
71291;DHT22;59073;51.994;4.448;2023-09-30T11:21:51;22.22;58.99
71291;DHT22;59073;51.994;4.448;2023-09-30T11:24:17;22.46;60.00
71291;DHT22;59073;51.994;4.448;2023-09-30T11:26:44;22.88;60.52
71291;DHT22;59073;51.994;4.448;2023-09-30T11:29:12;22.81;60.11
71291;DHT22;59073;51.994;4.448;2023-09-30T11:31:40;22.86;57.51
71291;DHT22;59073;51.994;4.448;2023-09-30T11:34:06;22.83;56.48
71291;DHT22;59073;51.994;4.448;2023-09-30T11:36:37;22.92;55.00
71291;DHT22;59073;51.994;4.448;2023-09-30T11:39:04;22.70;56.60
71291;DHT22;59073;51.994;4.448;2023-09-30T11:41:37;22.51;58.43
71291;DHT22;59073;51.994;4.448;2023-09-30T11:44:07;22.54;57.76
71291;DHT22;59073;51.994;4.448;2023-09-30T11:47:05;22.75;58.44
71291;DHT22;59073;51.994;4.448;2023-09-30T11:49:38;22.40;56.07
71291;DHT22;59073;51.994;4.448;2023-09-30T11:52:08;22.36;55.09
71291;DHT22;59073;51.994;4.448;2023-09-30T11:54:39;22.39;58.50
71291;DHT22;59073;51.994;4.448;2023-09-30T11:57:07;22.42;58.02
71291;DHT22;59073;51.994;4.448;2023-09-30T11:59:35;22.59;56.46
71291;DHT22;59073;51.994;4.448;2023-09-30T12:02:11;22.70;56.62
71291;DHT22;59073;51.994;4.448;2023-09-30T12:04:38;22.73;56.19
71291;DHT22;59073;51.994;4.448;2023-09-30T12:07:04;22.73;58.11
71291;DHT22;59073;51.994;4.448;2023-09-30T12:09:32;22.84;57.07
71291;DHT22;59073;51.994;4.448;2023-09-30T12:11:58;22.75;55.89
71291;DHT22;59073;51.994;4.448;2023-09-30T12:14:24;22.63;56.10
71291;DHT22;59073;51.994;4.448;2023-09-30T12:16:50;22.57;57.22
71291;DHT22;59073;51.994;4.448;2023-09-30T12:19:19;22.53;57.57
71291;DHT22;59073;51.994;4.448;2023-09-30T12:21:46;22.54;56.95
71291;DHT22;59073;51.994;4.448;2023-09-30T12:24:16;22.60;58.99
71291;DHT22;59073;51.994;4.448;2023-09-30T12:26:44;22.42;58.61
71291;DHT22;59073;51.994;4.448;2023-09-30T12:29:18;22.33;57.94
71291;DHT22;59073;51.994;4.448;2023-09-30T12:31:48;22.19;57.68
71291;DHT22;59073;51.994;4.448;2023-09-30T12:34:14;22.02;57.70
71291;DHT22;59073;51.994;4.448;2023-09-30T12:36:40;22.02;58.75
71291;DHT22;59073;51.994;4.448;2023-09-30T12:39:05;22.12;58.47
71291;DHT22;59073;51.994;4.448;2023-09-30T12:41:40;22.12;58.78
71291;DHT22;59073;51.994;4.448;2023-09-30T12:44:06;22.03;61.07
71291;DHT22;59073;51.994;4.448;2023-09-30T12:46:32;21.92;61.86
71291;DHT22;59073;51.994;4.448;2023-09-30T12:49:01;21.69;60.09
71291;DHT22;59073;51.994;4.448;2023-09-30T12:51:27;21.38;61.26
71291;DHT22;59073;51.994;4.448;2023-09-30T12:53:52;21.34;62.84
71291;DHT22;59073;51.994;4.448;2023-09-30T12:56:17;21.61;62.85
71291;DHT22;59073;51.994;4.448;2023-09-30T12:58:44;21.69;61.88
71291;DHT22;59073;51.994;4.448;2023-09-30T13:01:09;21.81;61.05
71291;DHT22;59073;51.994;4.448;2023-09-30T13:03:35;21.82;61.36
71291;DHT22;59073;51.994;4.448;2023-09-30T13:06:01;21.79;61.17
71291;DHT22;59073;51.994;4.448;2023-09-30T13:08:26;21.83;60.71
71291;DHT22;59073;51.994;4.448;2023-09-30T13:10:52;21.74;61.76
71291;DHT22;59073;51.994;4.448;2023-09-30T13:13:17;21.59;62.06
71291;DHT22;59073;51.994;4.448;2023-09-30T13:15:43;21.66;62.33
71291;DHT22;59073;51.994;4.448;2023-09-30T13:18:09;21.64;61.87
71291;DHT22;59073;51.994;4.448;2023-09-30T13:20:34;21.64;60.16
71291;DHT22;59073;51.994;4.448;2023-09-30T13:23:00;21.82;61.01
71291;DHT22;59073;51.994;4.448;2023-09-30T13:25:25;21.75;60.56
71291;DHT22;59073;51.994;4.448;2023-09-30T13:27:52;21.79;61.08
71291;DHT22;59073;51.994;4.448;2023-09-30T13:30:17;21.91;61.69
71291;DHT22;59073;51.994;4.448;2023-09-30T13:32:43;21.89;61.18
71291;DHT22;59073;51.994;4.448;2023-09-30T13:35:09;21.65;62.44
71291;DHT22;59073;51.994;4.448;2023-09-30T13:37:35;21.69;62.24
71291;DHT22;59073;51.994;4.448;2023-09-30T13:40:03;21.62;60.28
71291;DHT22;59073;51.994;4.448;2023-09-30T13:42:32;21.54;62.28
71291;DHT22;59073;51.994;4.448;2023-09-30T13:44:57;21.61;62.41
71291;DHT22;59073;51.994;4.448;2023-09-30T13:47:24;21.55;62.53
71291;DHT22;59073;51.994;4.448;2023-09-30T13:49:50;21.35;62.89
71291;DHT22;59073;51.994;4.448;2023-09-30T13:52:15;21.38;62.57
71291;DHT22;59073;51.994;4.448;2023-09-30T13:54:41;21.31;62.47
71291;DHT22;59073;51.994;4.448;2023-09-30T13:57:06;21.41;62.21
71291;DHT22;59073;51.994;4.448;2023-09-30T13:59:36;21.48;62.78
71291;DHT22;59073;51.994;4.448;2023-09-30T14:02:04;21.44;63.23
71291;DHT22;59073;51.994;4.448;2023-09-30T14:04:31;21.52;63.62
71291;DHT22;59073;51.994;4.448;2023-09-30T14:07:01;21.59;63.12
71291;DHT22;59073;51.994;4.448;2023-09-30T14:09:28;21.55;62.40
71291;DHT22;59073;51.994;4.448;2023-09-30T14:11:53;21.45;63.19
71291;DHT22;59073;51.994;4.448;2023-09-30T14:14:19;21.54;63.82
71291;DHT22;59073;51.994;4.448;2023-09-30T14:16:44;21.41;62.94
71291;DHT22;59073;51.994;4.448;2023-09-30T14:19:10;21.35;63.07
71291;DHT22;59073;51.994;4.448;2023-09-30T14:21:35;21.21;62.05
71291;DHT22;59073;51.994;4.448;2023-09-30T14:24:01;21.13;63.49
71291;DHT22;59073;51.994;4.448;2023-09-30T14:26:27;20.89;63.36
71291;DHT22;59073;51.994;4.448;2023-09-30T14:28:54;20.93;63.90
71291;DHT22;59073;51.994;4.448;2023-09-30T14:31:19;20.93;63.52
71291;DHT22;59073;51.994;4.448;2023-09-30T14:33:45;20.80;63.79
71291;DHT22;59073;51.994;4.448;2023-09-30T14:36:10;20.72;64.59
71291;DHT22;59073;51.994;4.448;2023-09-30T14:38:36;20.79;65.07
71291;DHT22;59073;51.994;4.448;2023-09-30T14:41:06;20.86;64.00
71291;DHT22;59073;51.994;4.448;2023-09-30T14:43:32;20.96;63.69
71291;DHT22;59073;51.994;4.448;2023-09-30T14:46:01;20.92;64.94
71291;DHT22;59073;51.994;4.448;2023-09-30T14:48:27;20.84;64.15
71291;DHT22;59073;51.994;4.448;2023-09-30T14:50:52;20.68;64.21
71291;DHT22;59073;51.994;4.448;2023-09-30T14:53:18;20.51;64.56
71291;DHT22;59073;51.994;4.448;2023-09-30T14:55:44;20.55;64.96
71291;DHT22;59073;51.994;4.448;2023-09-30T14:58:10;20.56;63.89
71291;DHT22;59073;51.994;4.448;2023-09-30T15:00:35;20.61;64.24
71291;DHT22;59073;51.994;4.448;2023-09-30T15:03:01;20.66;63.65
71291;DHT22;59073;51.994;4.448;2023-09-30T15:05:26;20.68;64.03
71291;DHT22;59073;51.994;4.448;2023-09-30T15:07:52;20.65;63.58
71291;DHT22;59073;51.994;4.448;2023-09-30T15:10:17;20.62;64.04
71291;DHT22;59073;51.994;4.448;2023-09-30T15:12:44;20.68;64.29
71291;DHT22;59073;51.994;4.448;2023-09-30T15:15:09;20.76;64.22
71291;DHT22;59073;51.994;4.448;2023-09-30T15:17:35;20.82;63.89
71291;DHT22;59073;51.994;4.448;2023-09-30T15:20:00;20.94;64.71
71291;DHT22;59073;51.994;4.448;2023-09-30T15:22:26;20.96;64.80
71291;DHT22;59073;51.994;4.448;2023-09-30T15:24:52;20.83;65.20
71291;DHT22;59073;51.994;4.448;2023-09-30T15:27:17;20.92;65.28
71291;DHT22;59073;51.994;4.448;2023-09-30T15:29:44;20.99;64.47
71291;DHT22;59073;51.994;4.448;2023-09-30T15:32:09;21.03;64.45
71291;DHT22;59073;51.994;4.448;2023-09-30T15:34:35;20.86;64.56
71291;DHT22;59073;51.994;4.448;2023-09-30T15:37:03;20.49;66.41
71291;DHT22;59073;51.994;4.448;2023-09-30T15:39:37;20.45;66.21
71291;DHT22;59073;51.994;4.448;2023-09-30T15:42:03;20.57;63.71
71291;DHT22;59073;51.994;4.448;2023-09-30T15:44:28;20.51;65.04
71291;DHT22;59073;51.994;4.448;2023-09-30T15:46:55;20.42;66.23